createdAt,value
2023-01-30T00:00:06.495Z,194
2023-01-30T00:00:33.404Z,196
2023-01-30T00:01:05.921Z,188
2023-01-30T00:01:37.277Z,183
2023-01-30T00:02:10.198Z,183
2023-01-30T00:02:41.229Z,183
2023-01-30T00:03:14.129Z,178
2023-01-30T00:03:45.294Z,175
2023-01-30T00:04:18.132Z,175
2023-01-30T00:04:49.201Z,175
2023-01-30T00:05:29.086Z,175
2023-01-30T00:05:53.336Z,175
2023-01-30T00:06:25.175Z,175
2023-01-30T00:06:58.901Z,175
2023-01-30T00:07:29.354Z,175
2023-01-30T00:08:02.247Z,172
2023-01-30T00:08:33.239Z,176
2023-01-30T00:09:06.039Z,185
2023-01-30T00:09:53.234Z,178
2023-01-30T00:10:26.179Z,183
2023-01-30T00:10:57.181Z,171
2023-01-30T00:11:30.278Z,171
2023-01-30T00:12:01.245Z,176
2023-01-30T00:12:35.105Z,175
2023-01-30T00:13:05.167Z,175
2023-01-30T00:13:38.015Z,166
2023-01-30T00:14:09.279Z,173
2023-01-30T00:14:42.122Z,171
2023-01-30T00:15:14.115Z,171
2023-01-30T00:15:46.272Z,167
2023-01-30T00:16:17.381Z,174
2023-01-30T00:16:50.092Z,172
2023-01-30T00:17:21.303Z,172
2023-01-30T00:17:54.194Z,172
2023-01-30T00:18:25.405Z,172
2023-01-30T00:18:58.026Z,172
2023-01-30T00:19:29.347Z,186
2023-01-30T00:20:02.328Z,172
2023-01-30T00:20:33.188Z,167
2023-01-30T00:21:21.418Z,167
2023-01-30T00:21:53.322Z,167
2023-01-30T00:22:25.356Z,205
2023-01-30T00:23:01.002Z,207
2023-01-30T00:23:29.309Z,207
2023-01-30T00:24:02.216Z,207
2023-01-30T00:24:33.509Z,207
2023-01-30T00:25:06.329Z,207
2023-01-30T00:25:37.470Z,207
2023-01-30T00:26:10.310Z,207
2023-01-30T00:26:41.192Z,233
2023-01-30T00:27:14.248Z,210
2023-01-30T00:27:45.364Z,210
2023-01-30T00:28:19.041Z,210
2023-01-30T00:28:49.238Z,210
2023-01-30T00:29:21.974Z,210
2023-01-30T00:30:02.543Z,210
2023-01-30T00:30:30.166Z,210
2023-01-30T00:30:57.561Z,242
2023-01-30T00:31:30.953Z,233
2023-01-30T00:32:01.201Z,234
2023-01-30T00:32:42.675Z,233
2023-01-30T00:33:05.266Z,233
2023-01-30T00:33:37.085Z,242
2023-01-30T00:34:10.048Z,226
2023-01-30T00:34:41.331Z,226
2023-01-30T00:35:24.011Z,226
2023-01-30T00:35:46.092Z,226
2023-01-30T00:36:17.297Z,226
2023-01-30T00:36:56.027Z,252
2023-01-30T00:37:21.181Z,226
2023-01-30T00:38:09.403Z,226
2023-01-30T00:38:41.272Z,227
2023-01-30T00:39:13.282Z,227
2023-01-30T00:39:45.365Z,268
2023-01-30T00:40:17.861Z,259
2023-01-30T00:40:49.451Z,259
2023-01-30T00:41:21.400Z,259
2023-01-30T00:41:53.174Z,259
2023-01-30T00:42:26.947Z,261
2023-01-30T00:42:57.309Z,261
2023-01-30T00:43:29.988Z,261
2023-01-30T00:44:01.243Z,259
2023-01-30T00:44:33.895Z,259
2023-01-30T00:45:06.396Z,259
2023-01-30T00:45:39.026Z,292
2023-01-30T00:46:09.347Z,292
2023-01-30T00:46:41.991Z,292
2023-01-30T00:47:13.134Z,290
2023-01-30T00:47:46.052Z,292
2023-01-30T00:48:17.217Z,310
2023-01-30T00:48:49.988Z,310
2023-01-30T00:49:21.221Z,310
2023-01-30T00:49:53.939Z,310
2023-01-30T00:50:25.764Z,310
2023-01-30T00:50:57.919Z,310
2023-01-30T00:51:29.242Z,315
2023-01-30T00:52:02.018Z,316
2023-01-30T00:52:33.376Z,316
2023-01-30T00:53:06.920Z,330
2023-01-30T00:53:37.285Z,319
2023-01-30T00:54:11.030Z,319
2023-01-30T00:54:41.347Z,316
2023-01-30T00:55:14.464Z,316
2023-01-30T00:55:45.315Z,312
2023-01-30T00:56:17.811Z,313
2023-01-30T00:56:49.301Z,313
2023-01-30T00:57:25.704Z,313
2023-01-30T00:57:53.300Z,313
2023-01-30T00:58:25.169Z,313
2023-01-30T00:59:13.362Z,313
2023-01-30T00:59:45.208Z,313
2023-01-30T01:00:18.499Z,307
2023-01-30T01:00:49.310Z,307
2023-01-30T01:01:21.245Z,307
2023-01-30T01:01:53.337Z,307
2023-01-30T01:02:25.376Z,307
2023-01-30T01:02:57.271Z,307
2023-01-30T01:03:29.255Z,304
2023-01-30T01:04:01.385Z,307
2023-01-30T01:04:33.181Z,306
2023-01-30T01:05:06.119Z,304
2023-01-30T01:05:37.273Z,304
2023-01-30T01:06:15.568Z,304
2023-01-30T01:06:42.737Z,306
2023-01-30T01:07:13.368Z,306
2023-01-30T01:07:47.213Z,306
2023-01-30T01:08:17.242Z,306
2023-01-30T01:08:50.701Z,256
2023-01-30T01:09:21.318Z,265
2023-01-30T01:09:54.912Z,256
2023-01-30T01:10:25.505Z,256
2023-01-30T01:10:58.027Z,235
2023-01-30T01:11:29.292Z,265
2023-01-30T01:12:05.027Z,265
2023-01-30T01:12:33.272Z,265
2023-01-30T01:13:06.053Z,265
2023-01-30T01:13:37.185Z,265
2023-01-30T01:14:10.047Z,265
2023-01-30T01:14:41.327Z,265
2023-01-30T01:15:15.795Z,260
2023-01-30T01:15:45.500Z,260
2023-01-30T01:16:18.012Z,260
2023-01-30T01:16:49.381Z,260
2023-01-30T01:17:22.240Z,260
2023-01-30T01:17:53.233Z,260
2023-01-30T01:18:27.206Z,226
2023-01-30T01:18:57.285Z,266
2023-01-30T01:19:30.829Z,262
2023-01-30T01:20:01.697Z,262
2023-01-30T01:20:34.001Z,244
2023-01-30T01:21:05.213Z,255
2023-01-30T01:21:38.198Z,255
2023-01-30T01:22:09.258Z,264
2023-01-30T01:22:25.432Z,264
2023-01-30T01:22:57.292Z,264
2023-01-30T01:23:29.249Z,269
2023-01-30T01:24:01.337Z,264
2023-01-30T01:24:33.197Z,241
2023-01-30T01:25:07.306Z,255
2023-01-30T01:25:37.465Z,252
2023-01-30T01:26:12.713Z,249
2023-01-30T01:26:41.300Z,249
2023-01-30T01:27:14.163Z,252
2023-01-30T01:27:45.341Z,276
2023-01-30T01:28:18.005Z,256
2023-01-30T01:28:49.268Z,273
2023-01-30T01:29:22.055Z,264
2023-01-30T01:29:53.184Z,264
2023-01-30T01:30:27.272Z,254
2023-01-30T01:30:57.485Z,253
2023-01-30T01:31:30.071Z,254
2023-01-30T01:32:01.329Z,254
2023-01-30T01:32:34.131Z,254
2023-01-30T01:33:05.269Z,285
2023-01-30T01:33:38.731Z,223
2023-01-30T01:34:09.204Z,272
2023-01-30T01:34:41.999Z,217
2023-01-30T01:35:13.506Z,276
2023-01-30T01:35:46.010Z,276
2023-01-30T01:36:42.473Z,273
2023-01-30T01:36:54.030Z,276
2023-01-30T01:37:21.251Z,262
2023-01-30T01:37:54.130Z,266
2023-01-30T01:38:25.287Z,279
2023-01-30T01:39:01.191Z,279
2023-01-30T01:39:29.201Z,279
2023-01-30T01:40:04.411Z,269
2023-01-30T01:40:33.336Z,269
2023-01-30T01:41:06.062Z,215
2023-01-30T01:41:37.301Z,260
2023-01-30T01:42:11.403Z,268
2023-01-30T01:42:41.250Z,268
2023-01-30T01:42:57.495Z,268
2023-01-30T01:43:29.208Z,269
2023-01-30T01:44:01.245Z,242
2023-01-30T01:44:33.991Z,224
2023-01-30T01:45:06.438Z,224
2023-01-30T01:45:38.375Z,263
2023-01-30T01:46:09.412Z,263
2023-01-30T01:46:43.218Z,206
2023-01-30T01:47:13.207Z,263
2023-01-30T01:47:46.254Z,224
2023-01-30T01:48:17.416Z,224
2023-01-30T01:48:53.204Z,224
2023-01-30T01:49:21.252Z,224
2023-01-30T01:49:54.076Z,193
2023-01-30T01:50:25.733Z,262
2023-01-30T01:50:58.127Z,233
2023-01-30T01:51:29.376Z,233
2023-01-30T01:52:04.219Z,237
2023-01-30T01:52:33.264Z,237
2023-01-30T01:53:06.302Z,229
2023-01-30T01:53:37.443Z,237
2023-01-30T01:54:10.921Z,237
2023-01-30T01:54:41.367Z,237
2023-01-30T01:55:18.959Z,237
2023-01-30T01:55:45.283Z,237
2023-01-30T01:56:17.241Z,237
2023-01-30T01:56:50.011Z,237
2023-01-30T01:57:21.367Z,237
2023-01-30T01:57:55.119Z,237
2023-01-30T01:58:25.277Z,237
2023-01-30T01:59:01.197Z,237
2023-01-30T01:59:29.389Z,237
2023-01-30T02:00:03.613Z,236
2023-01-30T02:00:33.469Z,236
2023-01-30T02:01:06.189Z,236
2023-01-30T02:01:37.285Z,236
2023-01-30T02:02:11.116Z,236
2023-01-30T02:02:41.489Z,236
2023-01-30T02:03:14.284Z,236
2023-01-30T02:03:45.188Z,236
2023-01-30T02:04:17.854Z,236
2023-01-30T02:04:49.396Z,208
2023-01-30T02:05:37.637Z,208
2023-01-30T02:06:09.204Z,238
2023-01-30T02:06:41.269Z,238
2023-01-30T02:06:57.343Z,238
2023-01-30T02:07:29.234Z,238
2023-01-30T02:08:01.243Z,238
2023-01-30T02:08:33.366Z,238
2023-01-30T02:09:05.375Z,238
2023-01-30T02:09:37.281Z,238
2023-01-30T02:10:09.542Z,268
2023-01-30T02:10:41.495Z,272
2023-01-30T02:11:13.225Z,268
2023-01-30T02:11:46.935Z,226
2023-01-30T02:12:17.341Z,249
2023-01-30T02:12:50.073Z,272
2023-01-30T02:13:21.229Z,272
2023-01-30T02:13:54.980Z,191
2023-01-30T02:14:25.363Z,191
2023-01-30T02:15:08.841Z,191
2023-01-30T02:15:29.427Z,222
2023-01-30T02:16:01.344Z,193
2023-01-30T02:16:34.211Z,193
2023-01-30T02:17:05.284Z,246
2023-01-30T02:17:39.310Z,193
2023-01-30T02:18:09.396Z,193
2023-01-30T02:18:43.090Z,193
2023-01-30T02:19:13.277Z,193
2023-01-30T02:19:48.106Z,222
2023-01-30T02:20:17.524Z,193
2023-01-30T02:20:50.219Z,229
2023-01-30T02:21:21.331Z,193
2023-01-30T02:21:53.979Z,193
2023-01-30T02:22:25.357Z,242
2023-01-30T02:23:01.216Z,239
2023-01-30T02:23:29.349Z,188
2023-01-30T02:24:05.009Z,233
2023-01-30T02:24:33.433Z,233
2023-01-30T02:25:06.393Z,233
2023-01-30T02:25:37.219Z,236
2023-01-30T02:26:11.029Z,232
2023-01-30T02:26:41.445Z,232
2023-01-30T02:27:14.522Z,232
2023-01-30T02:27:45.221Z,232
2023-01-30T02:28:18.071Z,232
2023-01-30T02:28:49.403Z,236
2023-01-30T02:29:22.821Z,236
2023-01-30T02:29:53.373Z,240
2023-01-30T02:30:29.306Z,236
2023-01-30T02:30:57.454Z,236
2023-01-30T02:31:30.965Z,236
2023-01-30T02:32:01.347Z,236
2023-01-30T02:32:34.407Z,192
2023-01-30T02:33:05.238Z,231
2023-01-30T02:33:39.010Z,231
2023-01-30T02:34:09.261Z,231
2023-01-30T02:34:42.338Z,159
2023-01-30T02:35:13.577Z,256
2023-01-30T02:35:47.146Z,256
2023-01-30T02:36:17.496Z,236
2023-01-30T02:36:50.087Z,250
2023-01-30T02:37:21.334Z,258
2023-01-30T02:37:55.192Z,236
2023-01-30T02:38:25.445Z,211
2023-01-30T02:39:00.032Z,159
2023-01-30T02:39:29.368Z,236
2023-01-30T02:40:02.667Z,236
2023-01-30T02:40:33.229Z,277
2023-01-30T02:41:10.124Z,252
2023-01-30T02:41:37.461Z,239
2023-01-30T02:42:09.222Z,239
2023-01-30T02:42:47.888Z,239
2023-01-30T02:43:13.383Z,239
2023-01-30T02:43:45.224Z,239
2023-01-30T02:44:18.215Z,239
2023-01-30T02:44:49.287Z,239
2023-01-30T02:45:23.141Z,239
2023-01-30T02:45:53.364Z,239
2023-01-30T02:46:27.979Z,239
2023-01-30T02:46:57.455Z,239
2023-01-30T02:47:36.482Z,239
2023-01-30T02:48:01.376Z,239
2023-01-30T02:48:33.441Z,239
2023-01-30T02:49:06.127Z,239
2023-01-30T02:49:37.205Z,239
2023-01-30T02:50:12.961Z,256
2023-01-30T02:50:41.367Z,239
2023-01-30T02:51:13.916Z,230
2023-01-30T02:51:45.331Z,230
2023-01-30T02:52:18.556Z,230
2023-01-30T02:52:49.377Z,230
2023-01-30T02:53:22.271Z,238
2023-01-30T02:53:53.370Z,238
2023-01-30T02:54:27.159Z,230
2023-01-30T02:54:57.344Z,230
2023-01-30T02:55:32.578Z,257
2023-01-30T02:56:01.397Z,243
2023-01-30T02:56:34.046Z,243
2023-01-30T02:57:05.234Z,238
2023-01-30T02:57:41.183Z,238
2023-01-30T02:58:09.380Z,238
2023-01-30T02:58:44.980Z,238
2023-01-30T02:59:13.387Z,230
2023-01-30T02:59:46.255Z,238
2023-01-30T03:00:18.242Z,229
2023-01-30T03:00:50.120Z,216
2023-01-30T03:01:21.478Z,236
2023-01-30T03:01:54.251Z,236
2023-01-30T03:02:25.445Z,236
2023-01-30T03:02:58.220Z,235
2023-01-30T03:03:29.302Z,238
2023-01-30T03:04:03.343Z,235
2023-01-30T03:04:33.295Z,238
2023-01-30T03:05:06.356Z,238
2023-01-30T03:05:37.366Z,238
2023-01-30T03:06:10.166Z,238
2023-01-30T03:06:41.352Z,232
2023-01-30T03:07:15.321Z,232
2023-01-30T03:07:45.389Z,232
2023-01-30T03:08:18.223Z,186
2023-01-30T03:08:49.324Z,193
2023-01-30T03:09:23.214Z,193
2023-01-30T03:09:53.258Z,193
2023-01-30T03:10:26.525Z,220
2023-01-30T03:10:57.416Z,201
2023-01-30T03:11:31.250Z,201
2023-01-30T03:12:01.337Z,193
2023-01-30T03:12:34.266Z,193
2023-01-30T03:13:05.381Z,188
2023-01-30T03:13:39.034Z,188
2023-01-30T03:14:09.262Z,188
2023-01-30T03:14:42.159Z,188
2023-01-30T03:15:14.080Z,188
2023-01-30T03:15:49.307Z,188
2023-01-30T03:16:17.402Z,264
2023-01-30T03:16:50.095Z,273
2023-01-30T03:17:21.288Z,218
2023-01-30T03:17:54.254Z,250
2023-01-30T03:18:25.206Z,249
2023-01-30T03:18:59.008Z,250
2023-01-30T03:19:29.331Z,249
2023-01-30T03:20:02.471Z,212
2023-01-30T03:20:33.279Z,250
2023-01-30T03:21:06.275Z,250
2023-01-30T03:21:37.345Z,225
2023-01-30T03:22:10.112Z,226
2023-01-30T03:22:41.356Z,250
2023-01-30T03:23:14.093Z,226
2023-01-30T03:23:45.456Z,226
2023-01-30T03:24:18.067Z,226
2023-01-30T03:24:49.387Z,226
2023-01-30T03:25:24.353Z,226
2023-01-30T03:25:53.230Z,226
2023-01-30T03:26:26.255Z,212
2023-01-30T03:26:57.555Z,217
2023-01-30T03:27:30.374Z,215
2023-01-30T03:28:01.353Z,212
2023-01-30T03:28:35.080Z,212
2023-01-30T03:29:05.373Z,212
2023-01-30T03:29:39.257Z,222
2023-01-30T03:30:10.395Z,220
2023-01-30T03:30:43.068Z,217
2023-01-30T03:31:13.602Z,220
2023-01-30T03:31:46.160Z,220
2023-01-30T03:32:17.327Z,215
2023-01-30T03:32:50.427Z,215
2023-01-30T03:33:21.487Z,215
2023-01-30T03:33:54.142Z,254
2023-01-30T03:34:25.367Z,215
2023-01-30T03:34:59.205Z,215
2023-01-30T03:35:29.679Z,224
2023-01-30T03:36:02.412Z,215
2023-01-30T03:36:33.423Z,224
2023-01-30T03:37:06.239Z,215
2023-01-30T03:37:37.273Z,215
2023-01-30T03:38:11.985Z,215
2023-01-30T03:38:41.399Z,215
2023-01-30T03:39:15.076Z,215
2023-01-30T03:39:45.320Z,254
2023-01-30T03:40:19.202Z,254
2023-01-30T03:40:49.324Z,254
2023-01-30T03:41:22.100Z,254
2023-01-30T03:41:53.313Z,246
2023-01-30T03:42:26.303Z,237
2023-01-30T03:42:57.293Z,246
2023-01-30T03:43:30.103Z,240
2023-01-30T03:44:01.367Z,246
2023-01-30T03:44:34.189Z,240
2023-01-30T03:45:06.413Z,240
2023-01-30T03:45:38.410Z,242
2023-01-30T03:46:09.584Z,203
2023-01-30T03:46:41.990Z,203
2023-01-30T03:47:13.335Z,242
2023-01-30T03:47:47.602Z,242
2023-01-30T03:48:17.190Z,247
2023-01-30T03:48:51.206Z,220
2023-01-30T03:49:21.425Z,242
2023-01-30T03:49:54.203Z,242
2023-01-30T03:50:25.672Z,242
2023-01-30T03:50:58.166Z,231
2023-01-30T03:51:29.368Z,240
2023-01-30T03:52:02.948Z,240
2023-01-30T03:52:33.309Z,242
2023-01-30T03:53:07.440Z,247
2023-01-30T03:53:37.405Z,211
2023-01-30T03:54:10.021Z,211
2023-01-30T03:54:41.337Z,211
2023-01-30T03:55:14.456Z,247
2023-01-30T03:55:45.178Z,247
2023-01-30T03:56:18.217Z,242
2023-01-30T03:56:49.400Z,242
2023-01-30T03:57:22.134Z,248
2023-01-30T03:57:53.274Z,248
2023-01-30T03:58:26.950Z,242
2023-01-30T03:58:57.372Z,244
2023-01-30T03:59:30.078Z,244
2023-01-30T04:00:02.959Z,248
2023-01-30T04:00:34.278Z,248
2023-01-30T04:01:05.283Z,248
2023-01-30T04:01:38.191Z,248
2023-01-30T04:02:09.373Z,231
2023-01-30T04:02:42.416Z,231
2023-01-30T04:03:13.224Z,231
2023-01-30T04:03:51.220Z,233
2023-01-30T04:04:17.307Z,233
2023-01-30T04:04:49.537Z,253
2023-01-30T04:05:21.631Z,253
2023-01-30T04:05:53.454Z,281
2023-01-30T04:06:25.239Z,260
2023-01-30T04:06:57.320Z,256
2023-01-30T04:07:30.107Z,274
2023-01-30T04:08:01.349Z,260
2023-01-30T04:08:34.356Z,252
2023-01-30T04:09:05.188Z,252
2023-01-30T04:09:38.133Z,235
2023-01-30T04:10:09.696Z,235
2023-01-30T04:10:42.169Z,260
2023-01-30T04:11:13.379Z,260
2023-01-30T04:11:46.414Z,260
2023-01-30T04:12:17.309Z,260
2023-01-30T04:12:49.997Z,260
2023-01-30T04:13:21.350Z,260
2023-01-30T04:13:56.028Z,260
2023-01-30T04:14:25.257Z,260
2023-01-30T04:14:58.056Z,260
2023-01-30T04:15:30.624Z,260
2023-01-30T04:16:02.140Z,241
2023-01-30T04:16:33.355Z,241
2023-01-30T04:17:06.270Z,226
2023-01-30T04:17:37.436Z,226
2023-01-30T04:18:10.035Z,226
2023-01-30T04:18:41.306Z,227
2023-01-30T04:19:15.149Z,227
2023-01-30T04:19:45.191Z,227
2023-01-30T04:20:19.421Z,227
2023-01-30T04:20:49.479Z,254
2023-01-30T04:21:22.414Z,227
2023-01-30T04:21:53.262Z,227
2023-01-30T04:22:26.984Z,234
2023-01-30T04:22:57.519Z,255
2023-01-30T04:23:30.827Z,255
2023-01-30T04:24:01.344Z,255
2023-01-30T04:24:35.380Z,192
2023-01-30T04:25:05.617Z,221
2023-01-30T04:25:38.279Z,228
2023-01-30T04:26:09.501Z,230
2023-01-30T04:26:42.313Z,234
2023-01-30T04:27:13.248Z,230
2023-01-30T04:27:47.019Z,230
2023-01-30T04:28:17.379Z,234
2023-01-30T04:28:53.216Z,234
2023-01-30T04:29:21.365Z,234
2023-01-30T04:29:55.201Z,246
2023-01-30T04:30:26.510Z,234
2023-01-30T04:30:58.328Z,271
2023-01-30T04:31:29.398Z,201
2023-01-30T04:32:02.242Z,219
2023-01-30T04:32:33.284Z,239
2023-01-30T04:33:06.239Z,239
2023-01-30T04:33:37.358Z,234
2023-01-30T04:34:10.312Z,239
2023-01-30T04:34:41.275Z,239
2023-01-30T04:35:15.980Z,195
2023-01-30T04:35:45.484Z,260
2023-01-30T04:36:17.976Z,246
2023-01-30T04:36:49.234Z,260
2023-01-30T04:37:22.256Z,260
2023-01-30T04:37:53.369Z,246
2023-01-30T04:38:27.076Z,238
2023-01-30T04:38:57.360Z,230
2023-01-30T04:39:30.382Z,239
2023-01-30T04:40:01.744Z,239
2023-01-30T04:40:35.185Z,239
2023-01-30T04:41:05.290Z,238
2023-01-30T04:41:44.165Z,232
2023-01-30T04:42:09.398Z,232
2023-01-30T04:42:41.293Z,232
2023-01-30T04:43:14.106Z,238
2023-01-30T04:43:45.455Z,239
2023-01-30T04:44:18.195Z,239
2023-01-30T04:44:49.405Z,239
2023-01-30T04:45:24.008Z,239
2023-01-30T04:45:53.525Z,239
2023-01-30T04:46:27.187Z,237
2023-01-30T04:46:57.483Z,225
2023-01-30T04:47:30.431Z,239
2023-01-30T04:48:01.410Z,225
2023-01-30T04:48:34.140Z,217
2023-01-30T04:49:05.439Z,221
2023-01-30T04:49:38.189Z,262
2023-01-30T04:50:09.736Z,248
2023-01-30T04:50:42.220Z,248
2023-01-30T04:51:13.374Z,223
2023-01-30T04:51:46.203Z,217
2023-01-30T04:52:17.546Z,217
2023-01-30T04:52:50.272Z,245
2023-01-30T04:53:21.441Z,245
2023-01-30T04:53:54.172Z,245
2023-01-30T04:54:25.286Z,222
2023-01-30T04:55:04.133Z,222
2023-01-30T04:55:29.436Z,229
2023-01-30T04:56:01.575Z,223
2023-01-30T04:56:33.358Z,223
2023-01-30T04:57:05.445Z,234
2023-01-30T04:57:37.472Z,232
2023-01-30T04:58:09.303Z,260
2023-01-30T04:58:42.227Z,257
2023-01-30T04:59:13.501Z,257
2023-01-30T04:59:46.291Z,257
2023-01-30T05:00:18.329Z,213
2023-01-30T05:00:51.300Z,229
2023-01-30T05:01:21.559Z,229
2023-01-30T05:02:09.622Z,229
2023-01-30T05:02:41.536Z,266
2023-01-30T05:03:13.425Z,233
2023-01-30T05:03:46.122Z,232
2023-01-30T05:04:17.515Z,233
2023-01-30T05:04:49.843Z,232
2023-01-30T05:05:21.624Z,232
2023-01-30T05:05:54.189Z,218
2023-01-30T05:06:25.321Z,218
2023-01-30T05:06:58.025Z,218
2023-01-30T05:07:29.413Z,178
2023-01-30T05:08:03.205Z,216
2023-01-30T05:08:33.249Z,263
2023-01-30T05:09:06.246Z,235
2023-01-30T05:09:37.367Z,272
2023-01-30T05:10:15.991Z,200
2023-01-30T05:10:41.327Z,195
2023-01-30T05:10:57.865Z,195
2023-01-30T05:11:29.209Z,195
2023-01-30T05:12:03.081Z,200
2023-01-30T05:12:33.391Z,266
2023-01-30T05:13:07.095Z,269
2023-01-30T05:13:37.350Z,269
2023-01-30T05:14:11.121Z,269
2023-01-30T05:14:41.385Z,269
2023-01-30T05:15:15.058Z,227
2023-01-30T05:15:45.487Z,235
2023-01-30T05:16:18.161Z,240
2023-01-30T05:16:49.444Z,234
2023-01-30T05:17:22.514Z,234
2023-01-30T05:17:53.414Z,234
2023-01-30T05:18:26.412Z,234
2023-01-30T05:18:57.414Z,248
2023-01-30T05:19:31.373Z,248
2023-01-30T05:20:01.743Z,234
2023-01-30T05:20:33.944Z,234
2023-01-30T05:21:05.368Z,202
2023-01-30T05:21:41.992Z,240
2023-01-30T05:22:09.430Z,240
2023-01-30T05:22:41.301Z,235
2023-01-30T05:23:14.204Z,246
2023-01-30T05:23:45.362Z,228
2023-01-30T05:24:18.025Z,228
2023-01-30T05:24:49.389Z,252
2023-01-30T05:25:22.316Z,227
2023-01-30T05:25:53.335Z,241
2023-01-30T05:26:33.341Z,227
2023-01-30T05:26:57.396Z,227
2023-01-30T05:27:29.401Z,227
2023-01-30T05:28:01.350Z,254
2023-01-30T05:28:33.431Z,236
2023-01-30T05:29:05.404Z,236
2023-01-30T05:29:37.426Z,109
2023-01-30T05:30:10.440Z,256
2023-01-30T05:30:41.609Z,239
2023-01-30T05:31:13.550Z,235
2023-01-30T05:31:45.250Z,235
2023-01-30T05:32:18.063Z,235
2023-01-30T05:32:49.356Z,239
2023-01-30T05:33:21.978Z,225
2023-01-30T05:33:53.264Z,243
2023-01-30T05:34:28.943Z,243
2023-01-30T05:34:57.414Z,243
2023-01-30T05:35:31.250Z,243
2023-01-30T05:36:01.391Z,234
2023-01-30T05:36:34.152Z,234
2023-01-30T05:37:05.298Z,234
2023-01-30T05:37:38.846Z,234
2023-01-30T05:38:09.343Z,243
2023-01-30T05:38:42.197Z,243
2023-01-30T05:39:13.175Z,243
2023-01-30T05:39:51.685Z,243
2023-01-30T05:40:17.643Z,243
2023-01-30T05:40:49.127Z,250
2023-01-30T05:41:22.094Z,243
2023-01-30T05:41:53.533Z,243
2023-01-30T05:42:31.282Z,243
2023-01-30T05:42:57.347Z,243
2023-01-30T05:43:29.377Z,243
2023-01-30T05:44:01.462Z,207
2023-01-30T05:44:33.317Z,207
2023-01-30T05:45:08.248Z,215
2023-01-30T05:45:37.561Z,241
2023-01-30T05:46:11.374Z,251
2023-01-30T05:46:41.402Z,241
2023-01-30T05:47:14.142Z,251
2023-01-30T05:47:45.441Z,260
2023-01-30T05:48:18.009Z,211
2023-01-30T05:48:49.444Z,251
2023-01-30T05:49:22.172Z,258
2023-01-30T05:49:53.463Z,186
2023-01-30T05:50:26.398Z,186
2023-01-30T05:50:57.577Z,186
2023-01-30T05:51:31.915Z,186
2023-01-30T05:52:01.418Z,186
2023-01-30T05:52:34.239Z,186
2023-01-30T05:53:05.499Z,186
2023-01-30T05:53:38.068Z,186
2023-01-30T05:54:09.404Z,251
2023-01-30T05:54:42.103Z,251
2023-01-30T05:55:13.581Z,217
2023-01-30T05:55:46.019Z,217
2023-01-30T05:56:17.395Z,217
2023-01-30T05:56:50.395Z,217
2023-01-30T05:57:21.355Z,227
2023-01-30T05:57:55.143Z,225
2023-01-30T05:58:25.374Z,225
2023-01-30T05:58:58.175Z,232
2023-01-30T05:59:29.287Z,226
2023-01-30T06:00:03.751Z,226
2023-01-30T06:00:33.472Z,224
2023-01-30T06:01:06.898Z,224
2023-01-30T06:01:37.306Z,224
2023-01-30T06:02:11.903Z,224
2023-01-30T06:02:41.507Z,224
2023-01-30T06:03:14.082Z,224
2023-01-30T06:03:45.442Z,224
2023-01-30T06:04:18.290Z,232
2023-01-30T06:04:49.478Z,224
2023-01-30T06:05:22.397Z,241
2023-01-30T06:05:53.412Z,225
2023-01-30T06:06:26.174Z,241
2023-01-30T06:06:57.301Z,241
2023-01-30T06:07:30.661Z,241
2023-01-30T06:08:01.458Z,241
2023-01-30T06:08:38.551Z,256
2023-01-30T06:09:05.178Z,256
2023-01-30T06:09:37.460Z,222
2023-01-30T06:10:09.534Z,241
2023-01-30T06:10:41.366Z,241
2023-01-30T06:11:14.051Z,245
2023-01-30T06:11:45.456Z,245
2023-01-30T06:12:18.111Z,245
2023-01-30T06:12:49.309Z,251
2023-01-30T06:13:22.182Z,248
2023-01-30T06:13:53.470Z,247
2023-01-30T06:14:27.109Z,247
2023-01-30T06:14:57.441Z,247
2023-01-30T06:15:33.022Z,247
2023-01-30T06:16:01.332Z,250
2023-01-30T06:16:38.994Z,245
2023-01-30T06:17:05.392Z,250
2023-01-30T06:17:37.481Z,240
2023-01-30T06:18:09.284Z,211
2023-01-30T06:18:41.352Z,235
2023-01-30T06:19:13.376Z,248
2023-01-30T06:19:45.323Z,253
2023-01-30T06:20:20.148Z,253
2023-01-30T06:20:49.519Z,253
2023-01-30T06:21:22.250Z,248
2023-01-30T06:21:53.284Z,248
2023-01-30T06:22:26.353Z,248
2023-01-30T06:22:57.590Z,248
2023-01-30T06:23:30.123Z,234
2023-01-30T06:24:01.413Z,234
2023-01-30T06:24:38.875Z,253
2023-01-30T06:25:05.688Z,240
2023-01-30T06:25:37.428Z,212
2023-01-30T06:26:10.139Z,237
2023-01-30T06:26:41.521Z,209
2023-01-30T06:26:57.524Z,209
2023-01-30T06:27:29.480Z,209
2023-01-30T06:28:01.444Z,237
2023-01-30T06:28:49.540Z,237
2023-01-30T06:29:21.354Z,237
2023-01-30T06:29:53.387Z,206
2023-01-30T06:30:26.470Z,206
2023-01-30T06:30:57.592Z,237
2023-01-30T06:31:30.032Z,213
2023-01-30T06:32:01.507Z,215
2023-01-30T06:32:33.959Z,215
2023-01-30T06:33:05.356Z,208
2023-01-30T06:33:51.975Z,208
2023-01-30T06:34:09.484Z,208
2023-01-30T06:34:41.409Z,215
2023-01-30T06:34:58.438Z,215
2023-01-30T06:35:29.698Z,213
2023-01-30T06:36:04.035Z,213
2023-01-30T06:36:33.519Z,215
2023-01-30T06:37:06.307Z,213
2023-01-30T06:37:37.305Z,213
2023-01-30T06:38:10.258Z,243
2023-01-30T06:38:41.440Z,243
2023-01-30T06:39:14.974Z,278
2023-01-30T06:39:45.381Z,234
2023-01-30T06:40:20.161Z,261
2023-01-30T06:40:49.376Z,238
2023-01-30T06:41:22.167Z,238
2023-01-30T06:41:53.364Z,234
2023-01-30T06:42:26.479Z,234
2023-01-30T06:42:57.443Z,234
2023-01-30T06:43:35.343Z,234
2023-01-30T06:44:01.421Z,234
2023-01-30T06:44:33.267Z,230
2023-01-30T06:45:07.341Z,237
2023-01-30T06:45:37.554Z,237
2023-01-30T06:46:11.188Z,237
2023-01-30T06:46:41.403Z,239
2023-01-30T06:47:14.483Z,237
2023-01-30T06:47:45.413Z,239
2023-01-30T06:48:18.316Z,239
2023-01-30T06:48:49.419Z,239
2023-01-30T06:49:23.316Z,239
2023-01-30T06:49:53.517Z,239
2023-01-30T06:50:26.497Z,239
2023-01-30T06:50:57.473Z,239
2023-01-30T06:51:32.005Z,239
2023-01-30T06:52:01.419Z,239
2023-01-30T06:52:35.165Z,239
2023-01-30T06:53:05.490Z,239
2023-01-30T06:53:38.048Z,239
2023-01-30T06:54:09.413Z,239
2023-01-30T06:54:42.308Z,239
2023-01-30T06:55:13.618Z,273
2023-01-30T06:55:46.192Z,273
2023-01-30T06:56:17.409Z,234
2023-01-30T06:56:50.347Z,264
2023-01-30T06:57:21.310Z,264
2023-01-30T06:57:55.013Z,234
2023-01-30T06:58:25.452Z,264
2023-01-30T06:58:58.427Z,264
2023-01-30T06:59:29.379Z,277
2023-01-30T07:00:04.066Z,221
2023-01-30T07:00:33.824Z,221
2023-01-30T07:01:11.715Z,212
2023-01-30T07:01:37.304Z,221
2023-01-30T07:02:09.481Z,221
2023-01-30T07:02:46.131Z,221
2023-01-30T07:03:13.581Z,221
2023-01-30T07:03:45.516Z,221
2023-01-30T07:04:17.568Z,221
2023-01-30T07:04:49.523Z,221
2023-01-30T07:05:22.744Z,269
2023-01-30T07:05:53.652Z,233
2023-01-30T07:06:27.499Z,233
2023-01-30T07:06:57.674Z,233
2023-01-30T07:07:30.668Z,233
2023-01-30T07:08:01.630Z,242
2023-01-30T07:08:38.879Z,233
2023-01-30T07:09:05.577Z,205
2023-01-30T07:09:37.641Z,236
2023-01-30T07:10:09.804Z,236
2023-01-30T07:10:41.704Z,233
2023-01-30T07:11:14.236Z,233
2023-01-30T07:11:45.745Z,237
2023-01-30T07:12:18.444Z,237
2023-01-30T07:12:49.682Z,236
2023-01-30T07:13:22.479Z,237
2023-01-30T07:13:53.753Z,237
2023-01-30T07:14:27.521Z,237
2023-01-30T07:14:57.699Z,237
2023-01-30T07:15:34.620Z,236
2023-01-30T07:16:01.569Z,236
2023-01-30T07:16:34.394Z,236
2023-01-30T07:17:05.762Z,236
2023-01-30T07:17:38.337Z,177
2023-01-30T07:18:09.629Z,235
2023-01-30T07:18:42.312Z,235
2023-01-30T07:19:13.701Z,230
2023-01-30T07:19:46.339Z,229
2023-01-30T07:20:18.010Z,229
2023-01-30T07:20:51.348Z,222